Metar z połowy godziny Komunikat METAR ze strony awiacja.imgw.pl Metar G30 EPDA METAR EPDA 190930Z 01002KT 9999 SCT038 14/09 Q1025 RMK 137 073 3/3 =